createdAt,value
2016-10-02T00:01:00.718Z,994.06
2016-10-02T00:02:10.710Z,994.05
2016-10-02T00:03:20.681Z,994.04
2016-10-02T00:04:30.978Z,994.05
2016-10-02T00:05:40.956Z,994.07
2016-10-02T00:06:51.259Z,994.07
2016-10-02T00:08:01.550Z,994.07
2016-10-02T00:09:11.543Z,994.11
2016-10-02T00:10:21.548Z,994.07
2016-10-02T00:11:31.524Z,994.08
2016-10-02T00:12:41.492Z,994.08
2016-10-02T00:13:51.775Z,994.08
2016-10-02T00:15:01.448Z,994.12
2016-10-02T00:16:11.432Z,994.13
2016-10-02T00:17:21.418Z,994.1
2016-10-02T00:18:31.705Z,994.12
2016-10-02T00:19:41.397Z,994.14
2016-10-02T00:20:51.072Z,994.13
2016-10-02T00:22:01.369Z,994.16
2016-10-02T00:23:11.663Z,994.17
2016-10-02T00:24:21.345Z,994.19
2016-10-02T00:25:31.335Z,994.21
2016-10-02T00:26:41.329Z,994.23
2016-10-02T00:27:51.309Z,994.24
2016-10-02T00:29:01.607Z,994.25
2016-10-02T00:30:11.903Z,994.27
2016-10-02T00:31:21.923Z,994.26
2016-10-02T00:32:31.896Z,994.35
2016-10-02T00:33:42.215Z,994.32
2016-10-02T00:34:51.913Z,994.32
2016-10-02T00:36:02.200Z,994.36
2016-10-02T00:37:12.182Z,994.38
2016-10-02T00:38:22.480Z,994.36
2016-10-02T00:39:32.460Z,994.38
2016-10-02T00:40:42.757Z,994.41
2016-10-02T00:41:52.753Z,994.39
2016-10-02T00:43:03.046Z,994.4
2016-10-02T00:44:13.339Z,994.46
2016-10-02T00:45:23.643Z,994.49
2016-10-02T00:46:33.316Z,994.49
2016-10-02T00:47:43.606Z,994.48
2016-10-02T00:48:53.609Z,994.48
2016-10-02T00:50:03.917Z,994.53
2016-10-02T00:51:14.239Z,994.55
2016-10-02T00:52:24.209Z,994.58
2016-10-02T00:53:34.531Z,994.59
2016-10-02T00:54:44.747Z,994.62
2016-10-02T00:55:55.038Z,994.68
2016-10-02T00:57:05.011Z,994.67
2016-10-02T00:58:15.315Z,994.73
2016-10-02T00:59:25.303Z,994.71
2016-10-02T01:00:35.617Z,994.68
2016-10-02T01:01:45.289Z,994.7
2016-10-02T01:02:55.280Z,994.69
2016-10-02T01:04:05.597Z,994.69
2016-10-02T01:05:15.877Z,994.7
2016-10-02T01:06:26.154Z,994.67
2016-10-02T01:07:36.143Z,994.71
2016-10-02T01:08:46.427Z,994.73
2016-10-02T01:09:56.720Z,994.72
2016-10-02T01:11:07.016Z,994.75
2016-10-02T01:12:16.688Z,994.7
2016-10-02T01:13:26.669Z,994.7
2016-10-02T01:14:36.688Z,994.71
2016-10-02T01:15:46.978Z,994.74
2016-10-02T01:16:56.955Z,994.78
2016-10-02T01:18:07.236Z,994.74
2016-10-02T01:19:16.598Z,994.76
2016-10-02T01:25:45.441Z,994.73
2016-10-02T01:26:55.762Z,994.71
2016-10-02T01:28:05.733Z,994.73
2016-10-02T01:29:15.720Z,994.69
2016-10-02T01:30:25.704Z,994.73
2016-10-02T01:31:35.993Z,994.7
2016-10-02T01:32:45.974Z,994.72
2016-10-02T01:33:56.271Z,994.73
2016-10-02T01:35:06.279Z,994.73
2016-10-02T01:36:16.603Z,994.66
2016-10-02T01:37:26.888Z,994.67
2016-10-02T01:38:37.196Z,994.63
2016-10-02T01:39:47.207Z,994.61
2016-10-02T01:40:57.187Z,994.64
2016-10-02T01:42:07.169Z,994.6
2016-10-02T01:43:17.455Z,994.62
2016-10-02T01:44:27.731Z,994.61
2016-10-02T01:45:37.404Z,994.6
2016-10-02T01:46:47.686Z,994.59
2016-10-02T01:47:57.678Z,994.64
2016-10-02T01:49:07.659Z,994.61
2016-10-02T01:50:17.640Z,994.61
2016-10-02T01:51:27.624Z,994.62
2016-10-02T01:52:37.913Z,994.64
2016-10-02T01:53:47.292Z,994.61
2016-10-02T01:54:57.291Z,994.6
2016-10-02T01:56:07.599Z,994.61
2016-10-02T01:57:17.577Z,994.58
2016-10-02T01:58:27.867Z,994.58
2016-10-02T01:59:38.149Z,994.61
2016-10-02T02:00:47.812Z,994.63
2016-10-02T02:01:57.477Z,994.63
2016-10-02T02:03:07.769Z,994.65
2016-10-02T02:04:18.067Z,994.62
2016-10-02T02:05:28.359Z,994.61
2016-10-02T02:06:38.341Z,994.59
2016-10-02T02:07:48.306Z,994.55
2016-10-02T02:08:58.274Z,994.53
2016-10-02T02:10:08.561Z,994.56
2016-10-02T02:11:18.861Z,994.54
2016-10-02T02:12:29.155Z,994.51
2016-10-02T02:13:39.455Z,994.55
2016-10-02T02:14:49.436Z,994.56
2016-10-02T02:15:59.734Z,994.57
2016-10-02T02:17:10.018Z,994.61
2016-10-02T02:18:20.008Z,994.66
2016-10-02T02:19:29.982Z,994.71
2016-10-02T02:20:39.960Z,994.71
2016-10-02T02:21:50.242Z,994.67
2016-10-02T02:23:00.551Z,994.67
2016-10-02T02:24:10.526Z,994.6
2016-10-02T02:25:20.835Z,994.61
2016-10-02T02:26:31.124Z,994.63
2016-10-02T02:27:41.416Z,994.58
2016-10-02T02:28:51.697Z,994.58
2016-10-02T02:30:02.006Z,994.55
2016-10-02T02:31:12.006Z,994.53
2016-10-02T02:32:21.989Z,994.54
2016-10-02T02:33:31.978Z,994.57
2016-10-02T02:34:41.948Z,994.51
2016-10-02T02:35:52.234Z,994.53
2016-10-02T02:37:02.526Z,994.54
2016-10-02T02:38:11.593Z,994.51
2016-10-02T02:39:21.570Z,994.53
2016-10-02T02:40:31.554Z,994.56
2016-10-02T02:41:40.917Z,994.57
2016-10-02T02:42:51.207Z,994.56
2016-10-02T02:44:00.881Z,994.61
2016-10-02T02:45:10.861Z,994.62
2016-10-02T02:46:20.519Z,994.6
2016-10-02T02:47:30.500Z,994.62
2016-10-02T02:48:40.474Z,994.64
2016-10-02T02:49:50.448Z,994.67
2016-10-02T02:51:00.722Z,994.68
2016-10-02T02:52:11.019Z,994.68
2016-10-02T02:53:21.002Z,994.7
2016-10-02T02:54:31.321Z,994.72
2016-10-02T02:55:41.601Z,994.69
2016-10-02T02:56:51.904Z,994.74
2016-10-02T02:58:01.891Z,994.73
2016-10-02T02:59:11.575Z,994.77
2016-10-02T03:00:21.861Z,994.77
2016-10-02T03:32:25.419Z,994.8
2016-10-02T03:33:35.411Z,994.8
2016-10-02T03:34:45.685Z,994.83
2016-10-02T03:35:55.658Z,994.83
2016-10-02T03:37:05.643Z,994.85
2016-10-02T03:38:15.937Z,994.84
2016-10-02T03:39:26.231Z,994.89
2016-10-02T03:40:36.208Z,994.87
2016-10-02T03:41:46.527Z,994.87
2016-10-02T03:42:56.206Z,994.87
2016-10-02T03:44:06.483Z,994.85
2016-10-02T03:45:16.766Z,994.86
2016-10-02T03:46:27.068Z,994.89
2016-10-02T03:47:37.364Z,994.91
2016-10-02T03:48:47.651Z,994.91
2016-10-02T03:49:57.014Z,994.95
2016-10-02T03:51:07.305Z,994.94
2016-10-02T03:52:17.271Z,994.92
2016-10-02T03:53:27.250Z,994.88
2016-10-02T03:54:36.943Z,994.95
2016-10-02T03:55:46.628Z,994.94
2016-10-02T03:56:56.912Z,994.94
2016-10-02T03:58:07.190Z,994.91
2016-10-02T03:59:17.467Z,994.97
2016-10-02T04:00:27.146Z,994.98
2016-10-02T04:01:37.420Z,995.01
2016-10-02T04:02:47.712Z,995.01
2016-10-02T04:03:58.008Z,995.03
2016-10-02T04:05:08.301Z,995.01
2016-10-02T04:06:18.606Z,995.03
2016-10-02T04:07:28.582Z,995.06
2016-10-02T04:08:38.570Z,995.04
2016-10-02T04:09:48.242Z,995.07
2016-10-02T04:10:57.607Z,995.08
2016-10-02T04:12:07.285Z,995.08
2016-10-02T04:13:17.295Z,995.07
2016-10-02T04:14:26.980Z,995.07
2016-10-02T04:15:36.961Z,995.08
2016-10-02T04:16:47.264Z,995.11
2016-10-02T04:17:57.554Z,995.11
2016-10-02T04:19:07.840Z,995.11
2016-10-02T04:20:18.121Z,995.16
2016-10-02T04:21:28.117Z,995.13
2016-10-02T04:22:38.085Z,995.1
2016-10-02T04:23:48.373Z,995.15
2016-10-02T04:24:58.370Z,995.2
2016-10-02T04:26:08.030Z,995.19
2016-10-02T04:27:18.013Z,995.17
2016-10-02T04:28:28.004Z,995.18
2016-10-02T04:29:37.669Z,995.24
2016-10-02T04:30:47.647Z,995.24
2016-10-02T04:31:57.343Z,995.24
2016-10-02T04:33:07.335Z,995.24
2016-10-02T04:34:17.009Z,995.22
2016-10-02T04:35:27.301Z,995.19
2016-10-02T04:36:37.292Z,995.23
2016-10-02T04:37:47.267Z,995.21
2016-10-02T04:38:57.539Z,995.23
2016-10-02T04:40:07.529Z,995.27
2016-10-02T04:41:17.818Z,995.22
2016-10-02T04:42:28.108Z,995.27
2016-10-02T04:43:37.166Z,995.31
2016-10-02T04:44:46.854Z,995.32
2016-10-02T04:45:56.827Z,995.35
2016-10-02T04:47:06.812Z,995.36
2016-10-02T04:48:16.790Z,995.38
2016-10-02T04:49:26.464Z,995.42
2016-10-02T04:50:36.773Z,995.39
2016-10-02T04:51:46.739Z,995.4
2016-10-02T04:52:57.050Z,995.36
2016-10-02T04:54:07.353Z,995.39
2016-10-02T04:55:17.342Z,995.37
2016-10-02T04:56:27.012Z,995.4
2016-10-02T04:57:37.297Z,995.37
2016-10-02T04:58:47.291Z,995.42
2016-10-02T04:59:57.267Z,995.41
2016-10-02T05:01:07.557Z,995.37
2016-10-02T05:02:17.238Z,995.38
2016-10-02T05:03:27.229Z,995.38
2016-10-02T05:04:36.901Z,995.42
2016-10-02T05:05:47.202Z,995.4
2016-10-02T05:06:57.506Z,995.41
2016-10-02T05:08:07.802Z,995.42
2016-10-02T05:09:17.804Z,995.43
2016-10-02T05:10:28.085Z,995.46
2016-10-02T05:11:38.068Z,995.49
2016-10-02T05:12:48.036Z,995.51
2016-10-02T05:13:58.020Z,995.59
2016-10-02T05:15:08.019Z,995.61
2016-10-02T05:16:18.318Z,995.68
2016-10-02T05:17:28.290Z,995.71
2016-10-02T05:18:37.956Z,995.7
2016-10-02T05:19:47.929Z,995.65
2016-10-02T05:20:57.606Z,995.67
2016-10-02T05:22:07.905Z,995.65
2016-10-02T05:23:18.203Z,995.68
2016-10-02T05:24:28.486Z,995.66
2016-10-02T05:25:38.470Z,995.67
2016-10-02T05:26:48.798Z,995.67
2016-10-02T05:27:59.100Z,995.68
2016-10-02T05:29:09.071Z,995.7
2016-10-02T05:30:19.049Z,995.74
2016-10-02T05:31:28.719Z,995.75
2016-10-02T05:32:38.395Z,995.78
2016-10-02T05:33:48.373Z,995.81
2016-10-02T05:34:58.369Z,995.81
2016-10-02T05:36:08.071Z,995.81
2016-10-02T05:37:18.053Z,995.81
2016-10-02T05:38:28.044Z,995.81
2016-10-02T05:39:38.070Z,995.84
2016-10-02T05:40:48.373Z,995.84
2016-10-02T05:41:58.044Z,995.84
2016-10-02T05:43:08.401Z,995.79
2016-10-02T05:44:18.685Z,995.83
2016-10-02T05:45:28.682Z,995.82
2016-10-02T05:46:38.979Z,995.82
2016-10-02T05:47:49.261Z,995.84
2016-10-02T05:48:59.562Z,995.85
2016-10-02T05:50:09.839Z,995.82
2016-10-02T05:51:19.510Z,995.84
2016-10-02T05:52:29.502Z,995.85
2016-10-02T05:53:39.474Z,995.84
2016-10-02T05:54:49.472Z,995.87
2016-10-02T05:55:59.453Z,995.87
2016-10-02T05:57:09.769Z,995.88
2016-10-02T05:58:19.755Z,995.91
2016-10-02T05:59:30.033Z,995.9
2016-10-02T06:00:40.044Z,995.92
2016-10-02T06:01:50.342Z,995.96
2016-10-02T06:03:00.348Z,995.99
2016-10-02T06:04:10.321Z,996.02
2016-10-02T06:05:19.691Z,996.04
2016-10-02T06:06:29.060Z,996.04
2016-10-02T06:07:39.045Z,996.09
2016-10-02T06:08:49.340Z,996.08
2016-10-02T06:09:59.014Z,996.11
2016-10-02T06:11:08.999Z,996.14
2016-10-02T06:12:19.290Z,996.13
2016-10-02T06:13:29.589Z,996.08
2016-10-02T06:14:39.261Z,996.09
2016-10-02T06:15:49.243Z,996.06
2016-10-02T06:16:59.222Z,996.04
2016-10-02T06:18:09.510Z,996
2016-10-02T06:19:19.426Z,996.01
2016-10-02T06:20:29.403Z,996
2016-10-02T06:21:39.699Z,996
2016-10-02T06:22:49.978Z,995.92
2016-10-02T06:23:59.659Z,995.93
2016-10-02T06:25:09.336Z,995.94
2016-10-02T06:26:19.629Z,995.94
2016-10-02T06:27:29.608Z,995.93
2016-10-02T06:28:39.590Z,995.92
2016-10-02T06:29:49.581Z,995.98
2016-10-02T06:30:59.563Z,995.98
2016-10-02T06:32:09.537Z,996.01
2016-10-02T06:33:19.827Z,996.02
2016-10-02T06:34:29.806Z,996.03
2016-10-02T06:35:39.815Z,996.07
2016-10-02T06:36:49.808Z,996.13
2016-10-02T06:37:59.799Z,996.14
2016-10-02T06:39:10.103Z,996.18
2016-10-02T06:40:20.074Z,996.2
2016-10-02T06:41:30.359Z,996.21
2016-10-02T06:42:40.660Z,996.23
2016-10-02T06:43:50.319Z,996.19
2016-10-02T06:45:00.340Z,996.19
2016-10-02T06:46:10.308Z,996.16
2016-10-02T06:47:20.291Z,996.21
2016-10-02T06:48:29.970Z,996.19
2016-10-02T06:49:40.272Z,996.21
2016-10-02T06:50:50.575Z,996.19
2016-10-02T06:52:00.566Z,996.22
2016-10-02T06:53:10.557Z,996.22
2016-10-02T06:54:20.880Z,996.27
2016-10-02T06:55:30.555Z,996.26
2016-10-02T06:56:40.846Z,996.29
2016-10-02T06:57:50.524Z,996.31
2016-10-02T06:59:00.821Z,996.28
2016-10-02T07:00:10.797Z,996.28
2016-10-02T07:01:21.101Z,996.28
2016-10-02T07:02:30.807Z,996.31
2016-10-02T07:03:40.807Z,996.31
2016-10-02T07:04:50.800Z,996.27
2016-10-02T07:06:00.781Z,996.26
2016-10-02T07:07:10.139Z,996.27
2016-10-02T07:08:20.436Z,996.26
2016-10-02T07:09:30.419Z,996.2
2016-10-02T07:10:40.713Z,996.22
2016-10-02T07:11:51.016Z,996.21
2016-10-02T07:13:01.007Z,996.22
2016-10-02T07:14:11.319Z,996.26
2016-10-02T07:15:20.997Z,996.25
2016-10-02T07:16:31.280Z,996.22
2016-10-02T07:17:40.963Z,996.29
2016-10-02T07:18:51.259Z,996.33
2016-10-02T07:20:01.558Z,996.35
2016-10-02T07:21:11.575Z,996.36
2016-10-02T07:22:21.870Z,996.41
2016-10-02T07:23:31.853Z,996.45
2016-10-02T07:24:42.160Z,996.43
2016-10-02T07:25:52.460Z,996.45
2016-10-02T07:27:02.457Z,996.43
2016-10-02T07:28:12.758Z,996.43
2016-10-02T07:29:22.732Z,996.42
2016-10-02T07:30:33.024Z,996.48
2016-10-02T07:31:43.321Z,996.48
2016-10-02T07:32:53.612Z,996.51
2016-10-02T07:34:03.909Z,996.49
2016-10-02T07:35:14.212Z,996.53
2016-10-02T07:36:23.897Z,996.52
2016-10-02T07:37:33.884Z,996.59
2016-10-02T07:38:43.892Z,996.6
2016-10-02T07:39:53.893Z,996.59
2016-10-02T07:41:04.203Z,996.6
2016-10-02T07:42:14.182Z,996.61
2016-10-02T07:43:23.864Z,996.62
2016-10-02T07:44:33.866Z,996.6
2016-10-02T07:45:43.853Z,996.61
2016-10-02T07:46:53.833Z,996.53
2016-10-02T07:48:03.815Z,996.56
2016-10-02T07:49:13.502Z,996.55
2016-10-02T07:50:23.522Z,996.56
2016-10-02T07:51:33.500Z,996.6
2016-10-02T07:52:43.866Z,996.57
2016-10-02T07:53:53.855Z,996.61
2016-10-02T07:55:03.842Z,996.63
2016-10-02T07:56:13.827Z,996.62
2016-10-02T07:57:23.810Z,996.66
2016-10-02T07:58:34.135Z,996.62
2016-10-02T07:59:43.842Z,996.59
2016-10-02T08:00:53.238Z,996.64
2016-10-02T08:02:03.545Z,996.65
2016-10-02T08:03:13.853Z,996.64
2016-10-02T08:04:23.220Z,996.63
2016-10-02T08:05:33.538Z,996.65
2016-10-02T08:06:43.507Z,996.67
2016-10-02T08:07:53.808Z,996.72
2016-10-02T08:09:04.106Z,996.72
2016-10-02T08:10:14.397Z,996.74
2016-10-02T08:11:24.396Z,996.73
2016-10-02T08:12:34.386Z,996.67
2016-10-02T08:13:44.740Z,996.68
2016-10-02T08:14:55.039Z,996.7
2016-10-02T08:16:04.740Z,996.75
2016-10-02T08:17:14.738Z,996.73
2016-10-02T08:18:24.720Z,996.74
2016-10-02T08:19:35.017Z,996.76
2016-10-02T08:20:45.008Z,996.74
2016-10-02T08:21:54.685Z,996.78
2016-10-02T08:23:04.976Z,996.76
2016-10-02T08:24:14.985Z,996.75
2016-10-02T08:25:24.987Z,996.8
2016-10-02T08:26:35.286Z,996.74
2016-10-02T08:27:45.565Z,996.78
2016-10-02T08:28:55.558Z,996.78
2016-10-02T08:30:05.601Z,996.77
2016-10-02T08:31:15.929Z,996.75
2016-10-02T08:32:26.224Z,996.77
2016-10-02T08:33:36.224Z,996.75
2016-10-02T08:34:46.527Z,996.81
2016-10-02T08:35:56.835Z,996.84
2016-10-02T08:37:07.122Z,996.82
2016-10-02T08:38:17.435Z,996.88
2016-10-02T08:39:27.443Z,996.81
2016-10-02T08:40:37.744Z,996.84
2016-10-02T08:41:47.745Z,996.86
2016-10-02T08:42:58.032Z,996.85
2016-10-02T08:44:08.023Z,996.83
2016-10-02T08:45:17.717Z,996.83
2016-10-02T08:46:28.017Z,996.84
2016-10-02T08:47:38.007Z,996.8
2016-10-02T08:48:48.006Z,996.78
2016-10-02T08:49:58.026Z,996.74
2016-10-02T08:51:08.323Z,996.72
2016-10-02T08:52:18.630Z,996.71
2016-10-02T08:53:28.946Z,996.66
2016-10-02T08:54:38.930Z,996.66
2016-10-02T08:55:48.595Z,996.63
2016-10-02T08:56:58.582Z,996.65
2016-10-02T08:58:08.808Z,996.64
2016-10-02T08:59:18.815Z,996.64
2016-10-02T09:00:29.135Z,996.61
2016-10-02T09:01:38.823Z,996.59
2016-10-02T09:02:49.138Z,996.61
2016-10-02T09:03:59.487Z,996.57
2016-10-02T09:05:09.474Z,996.55
2016-10-02T09:06:19.786Z,996.59
2016-10-02T09:07:29.771Z,996.57
2016-10-02T09:08:39.991Z,996.59
2016-10-02T09:09:50.274Z,996.59
2016-10-02T09:11:00.247Z,996.64
2016-10-02T09:12:10.227Z,996.61
2016-10-02T09:13:20.526Z,996.64
2016-10-02T09:14:31.057Z,996.67
2016-10-02T09:15:41.379Z,996.7
2016-10-02T09:16:51.385Z,996.7
2016-10-02T09:18:01.384Z,996.7
2016-10-02T09:19:11.695Z,996.72
2016-10-02T09:20:22.006Z,996.73
2016-10-02T09:21:32.322Z,996.76
2016-10-02T09:22:42.008Z,996.74
2016-10-02T09:23:52.312Z,996.74
2016-10-02T09:25:02.613Z,996.72
2016-10-02T09:26:12.904Z,996.68
2016-10-02T09:27:23.207Z,996.72
2016-10-02T09:28:33.523Z,996.77
2016-10-02T09:29:43.824Z,996.8
2016-10-02T09:30:53.509Z,996.76
2016-10-02T09:32:03.814Z,996.82
2016-10-02T09:33:13.817Z,996.83
2016-10-02T09:34:23.836Z,996.85
2016-10-02T09:35:33.834Z,996.87
2016-10-02T09:36:43.818Z,996.83
2016-10-02T09:37:53.189Z,996.82
2016-10-02T09:39:03.130Z,996.82
2016-10-02T09:40:14.820Z,996.79
2016-10-02T09:41:25.121Z,996.84
2016-10-02T09:42:35.112Z,996.84
2016-10-02T09:43:45.416Z,996.82
2016-10-02T09:44:55.117Z,996.85
2016-10-02T09:46:05.410Z,996.82
2016-10-02T09:47:15.725Z,996.85
2016-10-02T09:48:25.720Z,996.85
2016-10-02T09:49:35.382Z,996.87
2016-10-02T09:50:45.718Z,996.87
2016-10-02T09:51:56.012Z,996.84
2016-10-02T09:53:06.035Z,996.82
2016-10-02T09:54:16.036Z,996.83
2016-10-02T09:55:26.061Z,996.78
2016-10-02T09:56:36.087Z,996.77
2016-10-02T09:57:46.086Z,996.78
2016-10-02T09:58:56.372Z,996.77
2016-10-02T10:00:06.683Z,996.79
2016-10-02T10:01:16.391Z,996.8
2016-10-02T10:02:26.407Z,996.8
2016-10-02T10:03:36.721Z,996.8
2016-10-02T10:04:47.047Z,996.84
2016-10-02T10:05:57.354Z,996.84
2016-10-02T10:07:07.359Z,996.88
2016-10-02T10:08:17.345Z,996.87
2016-10-02T10:09:27.331Z,996.9
2016-10-02T10:10:37.328Z,996.9
2016-10-02T10:11:47.313Z,996.87
2016-10-02T10:12:57.296Z,996.91
2016-10-02T10:14:07.283Z,996.9
2016-10-02T10:15:17.583Z,996.89
2016-10-02T10:16:27.895Z,996.91
2016-10-02T10:17:38.192Z,996.96
2016-10-02T10:18:48.479Z,996.99
2016-10-02T10:19:58.468Z,996.96
2016-10-02T10:21:08.147Z,997.02
2016-10-02T10:22:18.131Z,997.01
2016-10-02T10:23:28.440Z,997.02
2016-10-02T10:24:38.761Z,997.02
2016-10-02T10:25:48.748Z,996.95
2016-10-02T10:26:58.116Z,996.95
2016-10-02T10:28:08.412Z,996.95
2016-10-02T10:29:18.102Z,996.88
2016-10-02T10:30:27.801Z,996.85
2016-10-02T10:31:38.116Z,996.89
2016-10-02T10:32:48.115Z,996.81
2016-10-02T10:33:58.116Z,996.78
2016-10-02T10:35:08.114Z,996.74
2016-10-02T10:36:17.817Z,996.71
2016-10-02T10:37:28.146Z,996.69
2016-10-02T10:38:38.133Z,996.64
2016-10-02T10:39:48.135Z,996.59
2016-10-02T10:40:58.430Z,996.54
2016-10-02T10:42:08.749Z,996.53
2016-10-02T10:43:19.061Z,996.54
2016-10-02T10:44:29.097Z,996.51
2016-10-02T10:45:39.089Z,996.53
2016-10-02T10:46:49.310Z,996.52
2016-10-02T10:47:59.295Z,996.54
2016-10-02T10:49:09.292Z,996.54
2016-10-02T10:50:19.311Z,996.54
2016-10-02T10:51:29.316Z,996.58
2016-10-02T10:52:39.021Z,996.62
2016-10-02T10:53:49.016Z,996.71
2016-10-02T10:54:58.706Z,996.71
2016-10-02T10:56:09.016Z,996.71
2016-10-02T10:57:19.000Z,996.75
2016-10-02T10:58:28.981Z,996.78
2016-10-02T10:59:39.313Z,996.83
2016-10-02T11:00:49.610Z,996.81
2016-10-02T11:01:58.984Z,996.78
2016-10-02T11:03:08.675Z,996.8
2016-10-02T11:04:18.682Z,996.78
2016-10-02T11:05:29.008Z,996.77
2016-10-02T11:06:38.398Z,996.71
2016-10-02T11:07:48.710Z,996.71
2016-10-02T11:08:58.997Z,996.64
2016-10-02T11:10:08.975Z,996.69
2016-10-02T11:11:18.952Z,996.7
2016-10-02T11:12:28.924Z,996.7
2016-10-02T11:13:39.232Z,996.69
2016-10-02T11:14:49.202Z,996.67
2016-10-02T11:15:58.908Z,996.61
2016-10-02T11:17:08.921Z,996.64
2016-10-02T11:18:18.902Z,996.56
2016-10-02T11:19:29.202Z,996.55
2016-10-02T11:20:39.175Z,996.56
2016-10-02T11:21:49.477Z,996.55
2016-10-02T11:22:59.470Z,996.52
2016-10-02T11:24:09.763Z,996.58
2016-10-02T11:25:20.057Z,996.59
2016-10-02T11:26:30.371Z,996.63
2016-10-02T11:27:40.368Z,996.63
2016-10-02T11:28:50.681Z,996.63
2016-10-02T11:30:00.696Z,996.66
2016-10-02T11:31:10.686Z,996.66
2016-10-02T11:32:21.001Z,996.67
2016-10-02T11:33:31.344Z,996.67
2016-10-02T11:34:41.027Z,996.67
2016-10-02T11:35:51.019Z,996.66
2016-10-02T11:37:00.415Z,996.67
2016-10-02T11:38:10.759Z,996.7
2016-10-02T11:39:20.779Z,996.68
2016-10-02T11:40:30.833Z,996.66
2016-10-02T11:41:41.145Z,996.67
2016-10-02T11:42:51.128Z,996.69
2016-10-02T11:44:01.131Z,996.72
2016-10-02T11:45:10.812Z,996.72
2016-10-02T11:46:21.129Z,996.73
2016-10-02T11:47:30.498Z,996.74
2016-10-02T11:48:40.487Z,996.74
2016-10-02T11:49:50.495Z,996.75
2016-10-02T11:51:00.791Z,996.71
2016-10-02T11:52:10.786Z,996.68
2016-10-02T11:53:20.186Z,996.69
2016-10-02T11:54:30.179Z,996.69
2016-10-02T11:55:40.502Z,996.62
2016-10-02T11:56:50.801Z,996.63
2016-10-02T11:57:59.872Z,996.64
2016-10-02T11:59:10.191Z,996.62
2016-10-02T12:00:19.914Z,996.62
2016-10-02T12:01:30.220Z,996.62
2016-10-02T12:02:40.536Z,996.62
2016-10-02T12:03:50.935Z,996.62
2016-10-02T12:05:01.248Z,996.61
2016-10-02T12:06:11.566Z,996.62
2016-10-02T12:07:21.562Z,996.62
2016-10-02T12:08:31.878Z,996.6
2016-10-02T12:09:41.562Z,996.58
2016-10-02T12:10:51.553Z,996.55
2016-10-02T12:12:01.563Z,996.55
2016-10-02T12:13:11.893Z,996.56
2016-10-02T12:14:21.880Z,996.57
2016-10-02T12:15:31.573Z,996.54
2016-10-02T12:16:41.574Z,996.52
2016-10-02T12:17:51.706Z,996.55
2016-10-02T12:19:01.707Z,996.56
2016-10-02T12:20:12.011Z,996.56
2016-10-02T12:21:22.597Z,996.62
2016-10-02T12:22:32.606Z,996.62
2016-10-02T12:23:42.913Z,996.66
2016-10-02T12:24:53.244Z,996.62
2016-10-02T12:26:03.556Z,996.66
2016-10-02T12:27:12.915Z,996.6
2016-10-02T12:28:22.928Z,996.61
2016-10-02T12:29:33.231Z,996.6
2016-10-02T12:30:43.524Z,996.64
2016-10-02T12:31:53.531Z,996.7
2016-10-02T12:33:03.828Z,996.73
2016-10-02T12:34:13.509Z,996.71
2016-10-02T12:35:23.507Z,996.71
2016-10-02T12:36:33.818Z,996.7
2016-10-02T12:37:44.114Z,996.68
2016-10-02T12:38:54.096Z,996.7
2016-10-02T12:40:04.412Z,996.7
2016-10-02T12:41:14.724Z,996.66
2016-10-02T12:42:24.725Z,996.7
2016-10-02T12:43:34.423Z,996.71
2016-10-02T12:44:44.431Z,996.7
2016-10-02T12:45:54.417Z,996.74
2016-10-02T12:47:04.420Z,996.73
2016-10-02T12:48:14.721Z,996.77
2016-10-02T12:49:25.040Z,996.73
2016-10-02T12:50:35.333Z,996.75
2016-10-02T12:51:45.008Z,996.73
2016-10-02T12:52:54.397Z,996.68
2016-10-02T12:54:04.718Z,996.66
2016-10-02T12:55:15.014Z,996.61
2016-10-02T12:56:25.332Z,996.62
2016-10-02T12:57:35.316Z,996.57
2016-10-02T12:58:45.614Z,996.62
2016-10-02T12:59:55.949Z,996.66
2016-10-02T13:01:05.943Z,996.7
2016-10-02T13:02:15.926Z,996.76
2016-10-02T13:03:25.630Z,996.75
2016-10-02T13:04:35.923Z,996.76
2016-10-02T13:05:45.771Z,996.78
2016-10-02T13:06:56.100Z,996.75
2016-10-02T13:08:06.588Z,996.71
2016-10-02T13:09:16.908Z,996.65
2016-10-02T13:10:27.221Z,996.63
2016-10-02T13:11:37.522Z,996.6
2016-10-02T13:12:47.834Z,996.58
2016-10-02T13:13:58.148Z,996.6
2016-10-02T13:15:08.477Z,996.61
2016-10-02T13:16:18.162Z,996.61
2016-10-02T13:17:28.477Z,996.65
2016-10-02T13:18:38.785Z,996.58
2016-10-02T13:19:49.116Z,996.62
2016-10-02T13:20:59.422Z,996.57
2016-10-02T13:22:09.734Z,996.62
2016-10-02T13:23:20.035Z,996.61
2016-10-02T13:24:30.054Z,996.61
2016-10-02T13:25:39.442Z,996.53
2016-10-02T13:26:49.435Z,996.56
2016-10-02T13:27:59.446Z,996.55
2016-10-02T13:29:09.751Z,996.52
2016-10-02T13:30:20.052Z,996.5
2016-10-02T13:31:30.349Z,996.49
2016-10-02T13:32:40.635Z,996.49
2016-10-02T13:33:50.923Z,996.49
2016-10-02T13:35:01.227Z,996.51
2016-10-02T13:36:10.921Z,996.52
2016-10-02T13:37:21.224Z,996.54
2016-10-02T13:38:31.225Z,996.51
2016-10-02T13:39:41.298Z,996.48
2016-10-02T13:40:51.005Z,996.46
2016-10-02T13:42:01.303Z,996.46
2016-10-02T13:43:10.987Z,996.42
2016-10-02T13:44:21.314Z,996.39
2016-10-02T13:45:31.308Z,996.38
2016-10-02T13:46:41.612Z,996.43
2016-10-02T13:47:50.984Z,996.42
2016-10-02T13:49:00.983Z,996.4
2016-10-02T13:50:11.274Z,996.42
2016-10-02T13:51:21.266Z,996.44
2016-10-02T13:52:31.568Z,996.45
2016-10-02T13:53:41.544Z,996.38
2016-10-02T13:54:51.540Z,996.4
2016-10-02T13:56:01.858Z,996.38
2016-10-02T13:57:11.867Z,996.38
2016-10-02T13:58:22.173Z,996.37
2016-10-02T13:59:32.162Z,996.37
2016-10-02T14:00:42.468Z,996.35
2016-10-02T14:01:52.472Z,996.35
2016-10-02T14:03:02.773Z,996.31
2016-10-02T14:04:12.774Z,996.33
2016-10-02T14:05:22.141Z,996.3
2016-10-02T14:06:32.444Z,996.27
2016-10-02T14:07:42.753Z,996.26
2016-10-02T14:08:52.454Z,996.23
2016-10-02T14:10:02.452Z,996.25
2016-10-02T14:11:12.463Z,996.25
2016-10-02T14:12:22.465Z,996.22
2016-10-02T14:13:32.124Z,996.2
2016-10-02T14:14:42.433Z,996.17
2016-10-02T14:15:52.428Z,996.14
2016-10-02T14:17:02.119Z,996.14
2016-10-02T14:18:12.117Z,996.08
2016-10-02T14:19:22.117Z,996.09
2016-10-02T14:20:32.313Z,996.05
2016-10-02T14:21:42.342Z,996.06
2016-10-02T14:22:52.652Z,996.03
2016-10-02T14:24:02.648Z,996.02
2016-10-02T14:25:12.939Z,995.99
2016-10-02T14:26:23.232Z,996.04
2016-10-02T14:27:33.534Z,996.08
2016-10-02T14:28:43.525Z,996.08
2016-10-02T14:29:53.517Z,996.07
2016-10-02T14:31:03.834Z,996.07
2016-10-02T14:32:14.135Z,996.14
2016-10-02T14:33:24.144Z,996.08
2016-10-02T14:34:34.435Z,996.07
2016-10-02T14:35:44.440Z,996.05
2016-10-02T14:36:54.444Z,996.06
2016-10-02T14:38:04.454Z,996.04
2016-10-02T14:39:14.452Z,996.1
2016-10-02T14:40:24.752Z,996.1
2016-10-02T14:41:35.098Z,996.12
2016-10-02T14:42:45.393Z,996.12
2016-10-02T14:43:55.391Z,996.12
2016-10-02T14:45:05.387Z,996.11
2016-10-02T14:46:15.707Z,996.08
2016-10-02T14:47:25.989Z,996.12
2016-10-02T14:48:35.662Z,996.07
2016-10-02T14:49:45.682Z,996.07
2016-10-02T14:50:55.377Z,996.03
2016-10-02T14:52:05.619Z,996.01
2016-10-02T14:53:15.918Z,996.01
2016-10-02T14:54:25.594Z,995.99
2016-10-02T14:55:35.578Z,996.01
2016-10-02T14:56:45.587Z,996.03
2016-10-02T14:57:55.875Z,996.03
2016-10-02T14:59:05.872Z,996.05
2016-10-02T15:00:15.872Z,996.03
2016-10-02T15:01:26.190Z,996.03
2016-10-02T15:02:36.502Z,996.04
2016-10-02T15:03:46.500Z,996.04
2016-10-02T15:04:56.510Z,996.07
2016-10-02T15:06:06.816Z,996
2016-10-02T15:07:16.489Z,996.05
2016-10-02T15:08:26.785Z,996.05
2016-10-02T15:09:36.785Z,996.05
2016-10-02T15:10:46.778Z,996.07
2016-10-02T15:11:56.159Z,996.05
2016-10-02T15:13:06.457Z,996
2016-10-02T15:14:16.458Z,995.98